Cookstown, United Kingdom
Current Conditions -  °F | °C
As of 3:20 AM on Friday 28 Nov 2014 (Local Time) from EGAA Reporting Station
Broken Clouds Broken Clouds  
Wind Chill: 41°   Ceiling: 4700
Heat Index: 46°   Visibility: 6mi
Dew Point: 45°   Wind: 10mph
Humidity: 93%   Direction: 100°E
Pressure: 29.56"   Gusts: NA
Location:  54.64°N, 6.75°W
Report Text: EGAA 280320Z 10009KT 9999 BKN047 08/07 Q1001
Loading
Personal Weather Stations






























Interactive Weather Map New forecast layout! Learn more

10-Day Weather Forecast

Advertisements
Track Severe Weather on mobile